createdAt,value
2022-11-28T00:01:20.596Z,9.37
2022-11-28T00:03:47.933Z,9.51
2022-11-28T00:06:15.307Z,9.46
2022-11-28T00:08:42.312Z,8.65
2022-11-28T00:11:12.375Z,8.57
2022-11-28T00:13:39.141Z,9.01
2022-11-28T00:16:08.527Z,9.25
2022-11-28T00:18:35.725Z,9.42
2022-11-28T00:21:05.286Z,9.13
2022-11-28T00:23:32.217Z,8.69
2022-11-28T00:26:10.357Z,9.18
2022-11-28T00:28:37.370Z,9.35
2022-11-28T00:31:04.547Z,9.38
2022-11-28T00:33:32.685Z,9.35
2022-11-28T00:36:01.734Z,9.48
2022-11-28T00:38:28.779Z,8.75
2022-11-28T00:41:00.858Z,9.04
2022-11-28T00:43:28.456Z,8.50
2022-11-28T00:45:55.603Z,8.66
2022-11-28T00:48:22.293Z,9.07
2022-11-28T00:50:50.051Z,9.13
2022-11-28T00:53:17.317Z,9.06
2022-11-28T00:55:43.973Z,9.29
2022-11-28T00:58:13.269Z,8.87
2022-11-28T01:00:40.000Z,8.40
2022-11-28T01:03:06.782Z,8.98
2022-11-28T01:05:35.341Z,8.59
2022-11-28T01:08:01.960Z,8.60
2022-11-28T01:10:28.663Z,8.32
2022-11-28T01:12:55.318Z,8.61
2022-11-28T01:15:21.933Z,7.68
2022-11-28T01:17:48.592Z,7.19
2022-11-28T01:20:15.261Z,7.77
2022-11-28T01:22:42.103Z,8.20
2022-11-28T01:25:08.838Z,8.37
2022-11-28T01:27:35.480Z,8.60
2022-11-28T01:30:02.116Z,8.49
2022-11-28T01:32:28.747Z,8.77
2022-11-28T01:34:55.409Z,8.63
2022-11-28T01:37:22.071Z,8.49
2022-11-28T01:39:48.707Z,8.42
2022-11-28T01:42:20.001Z,8.02
2022-11-28T01:44:49.550Z,8.35
2022-11-28T01:47:23.102Z,8.29
2022-11-28T01:49:51.754Z,8.29
2022-11-28T01:52:20.296Z,8.53
2022-11-28T01:54:53.219Z,8.80
2022-11-28T01:57:23.996Z,8.68
2022-11-28T02:00:05.717Z,8.24
2022-11-28T02:02:59.034Z,7.83
2022-11-28T02:05:25.702Z,7.73
2022-11-28T02:07:53.158Z,7.41
2022-11-28T02:10:57.309Z,8.10
2022-11-28T02:13:41.075Z,8.45
2022-11-28T02:16:39.061Z,7.97
2022-11-28T02:19:35.808Z,8.22
2022-11-28T02:22:17.673Z,7.44
2022-11-28T02:25:13.543Z,7.77
2022-11-28T02:27:55.019Z,8.19
2022-11-28T02:30:52.756Z,7.53
2022-11-28T02:33:44.888Z,7.88
2022-11-28T02:36:23.342Z,6.45
2022-11-28T02:39:13.620Z,6.17
2022-11-28T02:41:54.117Z,6.89
2022-11-28T02:44:29.000Z,7.19
2022-11-28T02:47:08.527Z,7.91
2022-11-28T02:49:55.122Z,8.05
2022-11-28T02:52:33.611Z,8.30
2022-11-28T02:55:01.506Z,8.69
2022-11-28T02:57:46.920Z,8.87
2022-11-28T03:00:32.420Z,8.84
2022-11-28T03:03:21.599Z,8.57
2022-11-28T03:06:19.381Z,8.61
2022-11-28T03:09:10.456Z,8.53
2022-11-28T03:11:55.568Z,8.58
2022-11-28T03:14:57.168Z,8.28
2022-11-28T03:17:38.060Z,7.78
2022-11-28T03:20:39.691Z,8.27
2022-11-28T03:23:12.114Z,7.60
2022-11-28T03:25:43.458Z,6.94
2022-11-28T03:28:23.450Z,6.60
2022-11-28T03:31:29.058Z,6.65
2022-11-28T03:34:00.617Z,6.97
2022-11-28T03:36:38.770Z,7.49
2022-11-28T03:39:11.205Z,7.43
2022-11-28T03:41:58.322Z,7.83
2022-11-28T03:44:35.175Z,7.68
2022-11-28T03:47:05.754Z,8.31
2022-11-28T03:49:40.138Z,7.22
2022-11-28T03:52:27.486Z,7.11
2022-11-28T03:55:07.371Z,7.50
2022-11-28T03:57:42.358Z,7.50
2022-11-28T04:00:12.702Z,7.51
2022-11-28T04:03:04.853Z,7.46
2022-11-28T04:05:51.925Z,7.44
2022-11-28T04:08:29.504Z,7.51
2022-11-28T04:11:11.291Z,7.15
2022-11-28T04:14:08.133Z,7.45
2022-11-28T04:16:50.584Z,7.98
2022-11-28T04:19:51.064Z,7.99
2022-11-28T04:22:44.282Z,7.83
2022-11-28T04:25:16.094Z,7.75
2022-11-28T04:27:53.133Z,7.76
2022-11-28T04:30:19.796Z,7.99
2022-11-28T04:32:52.003Z,8.60
2022-11-28T04:35:33.953Z,8.01
2022-11-28T04:38:05.066Z,8.27
2022-11-28T04:40:41.759Z,8.45
2022-11-28T04:43:39.405Z,9.23
2022-11-28T04:46:13.361Z,8.96
2022-11-28T04:48:41.273Z,9.29
2022-11-28T04:51:36.174Z,9.02
2022-11-28T04:54:08.618Z,9.08
2022-11-28T04:56:44.848Z,9.28
2022-11-28T04:59:14.852Z,8.94
2022-11-28T05:01:47.156Z,9.47
2022-11-28T05:04:15.449Z,9.22
2022-11-28T05:06:42.086Z,8.60
2022-11-28T05:09:11.520Z,8.16
2022-11-28T05:11:38.845Z,8.57
2022-11-28T05:14:06.172Z,8.83
2022-11-28T05:16:32.871Z,9.28
2022-11-28T05:18:59.553Z,9.11
2022-11-28T05:21:26.126Z,8.68
2022-11-28T05:23:52.729Z,9.14
2022-11-28T05:26:21.443Z,9.46
2022-11-28T05:28:50.609Z,9.67
2022-11-28T05:31:19.615Z,9.59
2022-11-28T05:33:46.352Z,10.11
2022-11-28T05:36:15.421Z,10.34
2022-11-28T05:38:43.248Z,10.42
2022-11-28T05:41:18.052Z,9.91
2022-11-28T05:43:44.657Z,10.33
2022-11-28T05:46:11.457Z,10.35
2022-11-28T05:48:38.132Z,10.37
2022-11-28T05:51:05.406Z,9.99
2022-11-28T05:53:32.141Z,10.34
2022-11-28T05:55:58.861Z,10.14
2022-11-28T05:58:25.483Z,10.40
2022-11-28T06:00:52.078Z,10.25
2022-11-28T06:03:18.656Z,10.55
2022-11-28T06:05:45.364Z,10.58
2022-11-28T06:08:13.140Z,9.78
2022-11-28T06:10:40.604Z,9.92
2022-11-28T06:13:07.485Z,10.21
2022-11-28T06:15:37.850Z,10.02
2022-11-28T06:18:05.605Z,10.40
2022-11-28T06:20:34.840Z,10.51
2022-11-28T06:23:01.580Z,10.57
2022-11-28T06:25:28.434Z,10.47
2022-11-28T06:27:55.042Z,9.96
2022-11-28T06:30:21.700Z,9.55
2022-11-28T06:32:48.312Z,9.77
2022-11-28T06:35:14.975Z,9.40
2022-11-28T06:37:43.449Z,9.58
2022-11-28T06:40:10.898Z,9.71
2022-11-28T06:42:38.028Z,9.91
2022-11-28T06:45:06.219Z,10.03
2022-11-28T06:47:32.926Z,9.96
2022-11-28T06:49:59.534Z,10.21
2022-11-28T06:52:26.194Z,10.29
2022-11-28T06:54:52.792Z,10.06
2022-11-28T06:57:19.426Z,10.12
2022-11-28T06:59:46.006Z,9.85
2022-11-28T07:02:12.651Z,9.68
2022-11-28T07:04:39.445Z,9.86
2022-11-28T07:07:06.207Z,10.01
2022-11-28T07:09:32.827Z,9.93
2022-11-28T07:11:59.509Z,8.99
2022-11-28T07:14:26.126Z,9.21
2022-11-28T07:16:52.811Z,9.54
2022-11-28T07:19:19.525Z,9.91
2022-11-28T07:21:46.153Z,10.13
2022-11-28T07:24:12.758Z,9.68
2022-11-28T07:26:39.354Z,8.91
2022-11-28T07:29:05.945Z,8.65
2022-11-28T07:31:32.689Z,9.07
2022-11-28T07:34:01.938Z,9.56
2022-11-28T07:36:29.404Z,8.96
2022-11-28T07:38:58.882Z,9.46
2022-11-28T07:41:27.318Z,9.17
2022-11-28T07:44:04.117Z,9.33
2022-11-28T07:46:35.681Z,9.76
2022-11-28T07:49:03.205Z,9.95
2022-11-28T07:51:33.008Z,9.38
2022-11-28T07:54:00.933Z,10.05
2022-11-28T07:56:50.189Z,9.97
2022-11-28T07:59:18.223Z,9.85
2022-11-28T08:01:45.794Z,10.07
2022-11-28T08:04:14.047Z,10.26
2022-11-28T08:06:42.649Z,10.58
2022-11-28T08:09:10.066Z,10.80
2022-11-28T08:11:36.805Z,10.60
2022-11-28T08:14:05.397Z,10.62
2022-11-28T08:16:32.913Z,11.02
2022-11-28T08:19:02.624Z,10.64
2022-11-28T08:21:33.637Z,11.23
2022-11-28T08:24:02.203Z,11.29
2022-11-28T08:26:31.418Z,11.24
2022-11-28T08:29:02.764Z,11.18
2022-11-28T08:31:33.578Z,11.47
2022-11-28T08:34:02.511Z,11.28
2022-11-28T08:36:29.585Z,11.48
2022-11-28T08:39:09.778Z,11.47
2022-11-28T08:41:43.820Z,11.15
2022-11-28T08:44:10.441Z,11.30
2022-11-28T08:46:37.062Z,11.16
2022-11-28T08:49:04.789Z,11.36
2022-11-28T08:51:31.902Z,11.67
2022-11-28T08:53:59.745Z,11.76
2022-11-28T08:56:27.094Z,11.98
2022-11-28T08:58:54.454Z,12.04
2022-11-28T09:01:24.192Z,12.07
2022-11-28T09:03:52.769Z,11.74
2022-11-28T09:06:19.887Z,11.53
2022-11-28T09:08:47.767Z,11.03
2022-11-28T09:11:17.804Z,11.01
2022-11-28T09:13:46.367Z,11.23
2022-11-28T09:16:14.393Z,11.36
2022-11-28T09:18:41.307Z,11.50
2022-11-28T09:21:11.877Z,11.67
2022-11-28T09:23:40.655Z,12.07
2022-11-28T09:26:16.446Z,12.35
2022-11-28T09:28:43.435Z,12.63
2022-11-28T09:31:11.235Z,12.18
2022-11-28T09:33:38.337Z,12.36
2022-11-28T09:36:14.191Z,12.40
2022-11-28T09:38:41.149Z,11.74
2022-11-28T09:41:49.272Z,11.85
2022-11-28T09:44:37.822Z,11.73
2022-11-28T09:47:14.302Z,11.61
2022-11-28T09:49:59.035Z,11.28
2022-11-28T09:52:28.441Z,11.23
2022-11-28T09:55:15.941Z,11.13
2022-11-28T09:57:49.596Z,11.12
2022-11-28T10:00:22.860Z,10.76
2022-11-28T10:03:14.367Z,10.95
2022-11-28T10:05:49.652Z,10.94
2022-11-28T10:08:31.172Z,11.04
2022-11-28T10:11:14.954Z,11.51
2022-11-28T10:14:14.281Z,11.73
2022-11-28T10:17:00.765Z,11.98
2022-11-28T10:19:54.820Z,11.91
2022-11-28T10:23:00.684Z,12.18
2022-11-28T10:25:50.485Z,12.48
2022-11-28T10:28:23.806Z,12.49
2022-11-28T10:31:02.231Z,12.73
2022-11-28T10:33:50.214Z,12.27
2022-11-28T10:36:45.800Z,12.30
2022-11-28T10:39:13.428Z,12.31
2022-11-28T10:42:09.853Z,12.30
2022-11-28T10:44:44.909Z,11.40
2022-11-28T10:47:43.542Z,11.18
2022-11-28T10:50:18.983Z,11.37
2022-11-28T10:53:13.969Z,11.73
2022-11-28T10:56:16.505Z,11.78
2022-11-28T10:59:07.196Z,11.28
2022-11-28T11:01:43.791Z,11.94
2022-11-28T11:04:27.133Z,11.99
2022-11-28T11:07:08.130Z,12.16
2022-11-28T11:09:36.814Z,12.08
2022-11-28T11:12:12.918Z,12.00
2022-11-28T11:14:39.860Z,11.84
2022-11-28T11:17:07.143Z,12.30
2022-11-28T11:19:38.057Z,12.34
2022-11-28T11:22:24.369Z,11.25
2022-11-28T11:25:13.617Z,11.80
2022-11-28T11:27:55.727Z,11.75
2022-11-28T11:30:29.943Z,10.80
2022-11-28T11:32:59.225Z,10.87
2022-11-28T11:35:30.022Z,11.50
2022-11-28T11:38:15.411Z,11.82
2022-11-28T11:40:43.553Z,12.07
2022-11-28T11:43:31.768Z,12.41
2022-11-28T11:46:10.759Z,12.54
2022-11-28T11:48:41.623Z,12.72
2022-11-28T11:51:37.951Z,11.87
2022-11-28T11:54:17.249Z,11.78
2022-11-28T11:56:51.249Z,11.73
2022-11-28T11:59:39.036Z,12.15
2022-11-28T12:02:27.840Z,12.49
2022-11-28T12:05:19.661Z,12.16
2022-11-28T12:07:58.307Z,12.03
2022-11-28T12:10:28.672Z,11.53
2022-11-28T12:12:55.266Z,11.57
2022-11-28T12:15:31.972Z,11.52
2022-11-28T12:18:08.072Z,12.25
2022-11-28T12:20:37.872Z,12.20
2022-11-28T12:23:22.973Z,12.16
2022-11-28T12:25:56.481Z,12.24
2022-11-28T12:29:02.180Z,11.88
2022-11-28T12:31:49.352Z,12.14
2022-11-28T12:34:34.881Z,12.47
2022-11-28T12:37:10.320Z,12.76
2022-11-28T12:39:42.986Z,12.33
2022-11-28T12:42:21.105Z,12.28
2022-11-28T12:45:15.559Z,12.62
2022-11-28T12:47:57.000Z,12.55
2022-11-28T12:50:29.624Z,12.27
2022-11-28T12:53:19.094Z,12.44
2022-11-28T12:55:56.307Z,12.48
2022-11-28T12:58:44.868Z,12.72
2022-11-28T13:01:36.451Z,12.68
2022-11-28T13:04:26.332Z,11.58
2022-11-28T13:07:16.138Z,11.81
2022-11-28T13:10:24.609Z,12.29
2022-11-28T13:12:57.989Z,12.48
2022-11-28T13:15:41.797Z,12.63
2022-11-28T13:18:26.629Z,12.81
2022-11-28T13:21:19.057Z,13.18
2022-11-28T13:24:06.618Z,12.61
2022-11-28T13:26:56.123Z,12.18
2022-11-28T13:29:31.690Z,11.40
2022-11-28T13:32:30.690Z,12.06
2022-11-28T13:34:58.897Z,12.14
2022-11-28T13:40:43.225Z,11.03
2022-11-28T13:43:46.602Z,10.87
2022-11-28T13:46:14.573Z,10.89
2022-11-28T13:51:32.697Z,10.93
2022-11-28T13:54:32.087Z,11.20
2022-11-28T13:57:19.432Z,11.50
2022-11-28T13:59:59.006Z,10.93
2022-11-28T14:02:38.704Z,10.85
2022-11-28T14:05:28.926Z,10.84
2022-11-28T14:07:57.726Z,10.47
2022-11-28T14:10:47.060Z,10.23
2022-11-28T14:13:25.799Z,10.11
2022-11-28T14:15:58.648Z,10.40
2022-11-28T14:18:56.160Z,9.96
2022-11-28T14:21:23.648Z,9.87
2022-11-28T14:24:10.586Z,10.03
2022-11-28T14:26:40.317Z,10.29
2022-11-28T14:29:21.476Z,10.48
2022-11-28T14:32:21.921Z,10.13
2022-11-28T14:34:45.534Z,10.24
2022-11-28T14:37:21.747Z,10.03
2022-11-28T14:39:53.369Z,9.87
2022-11-28T14:42:57.783Z,10.00
2022-11-28T14:45:42.810Z,9.87
2022-11-28T14:48:21.844Z,10.07
2022-11-28T14:50:49.946Z,9.70
2022-11-28T14:53:35.334Z,9.74
2022-11-28T14:56:24.296Z,9.57
2022-11-28T14:58:55.864Z,9.31
2022-11-28T15:01:40.569Z,9.55
2022-11-28T15:04:41.189Z,9.81
2022-11-28T15:07:38.510Z,9.29
2022-11-28T15:10:39.278Z,9.31
2022-11-28T15:13:27.486Z,9.36
2022-11-28T15:15:54.517Z,9.59
2022-11-28T15:18:25.474Z,9.89
2022-11-28T15:21:01.943Z,9.47
2022-11-28T15:23:35.287Z,9.00
2022-11-28T15:26:02.749Z,8.96
2022-11-28T15:28:31.765Z,9.08
2022-11-28T15:31:02.191Z,8.98
2022-11-28T15:33:30.217Z,9.37
2022-11-28T15:36:02.187Z,9.02
2022-11-28T15:38:31.556Z,8.81
2022-11-28T15:41:00.383Z,8.59
2022-11-28T15:43:28.182Z,8.91
2022-11-28T15:45:59.692Z,8.68
2022-11-28T15:48:50.593Z,8.78
2022-11-28T15:51:35.364Z,8.32
2022-11-28T15:54:03.378Z,8.45
2022-11-28T15:56:30.056Z,8.53
2022-11-28T15:58:56.677Z,8.45
2022-11-28T16:01:26.270Z,8.32
2022-11-28T16:04:06.312Z,8.60
2022-11-28T16:06:37.981Z,8.53
2022-11-28T16:09:06.342Z,8.37
2022-11-28T16:11:35.605Z,8.38
2022-11-28T16:14:09.427Z,8.49
2022-11-28T16:16:38.891Z,8.41
2022-11-28T16:19:32.045Z,8.38
2022-11-28T16:22:02.221Z,8.09
2022-11-28T16:24:35.347Z,7.96
2022-11-28T16:27:06.324Z,8.06
2022-11-28T16:29:35.665Z,8.29
2022-11-28T16:32:09.385Z,8.75
2022-11-28T16:34:51.381Z,8.34
2022-11-28T16:37:23.134Z,8.29
2022-11-28T16:40:04.681Z,8.44
2022-11-28T16:42:33.740Z,8.40
2022-11-28T16:45:15.663Z,8.91
2022-11-28T16:47:43.770Z,8.36
2022-11-28T16:50:15.543Z,9.31
2022-11-28T16:52:49.532Z,8.58
2022-11-28T16:55:31.296Z,8.83
2022-11-28T16:58:10.321Z,8.44
2022-11-28T17:00:40.598Z,8.40
2022-11-28T17:03:12.749Z,8.19
2022-11-28T17:05:39.555Z,8.04
2022-11-28T17:08:08.027Z,8.35
2022-11-28T17:10:34.726Z,8.16
2022-11-28T17:13:01.404Z,8.45
2022-11-28T17:15:28.023Z,8.10
2022-11-28T17:17:54.658Z,8.23
2022-11-28T17:20:21.334Z,8.22
2022-11-28T17:22:49.413Z,8.43
2022-11-28T17:25:18.784Z,8.65
2022-11-28T17:27:46.438Z,9.11
2022-11-28T17:30:14.669Z,8.67
2022-11-28T17:32:41.284Z,8.77
2022-11-28T17:35:20.002Z,8.54
2022-11-28T17:37:46.612Z,8.86
2022-11-28T17:40:13.205Z,8.79
2022-11-28T17:42:39.959Z,9.13
2022-11-28T17:45:14.844Z,8.92
2022-11-28T17:47:41.470Z,8.93
2022-11-28T17:50:09.668Z,8.70
2022-11-28T17:52:36.278Z,8.66
2022-11-28T17:55:06.644Z,8.63
2022-11-28T17:57:34.259Z,9.04
2022-11-28T18:00:00.909Z,9.08
2022-11-28T18:02:28.256Z,9.37
2022-11-28T18:04:54.930Z,9.52
2022-11-28T18:07:21.619Z,8.88
2022-11-28T18:09:48.265Z,9.03
2022-11-28T18:12:14.849Z,9.02
2022-11-28T18:14:41.458Z,8.58
2022-11-28T18:17:08.115Z,8.25
2022-11-28T18:19:35.136Z,8.21
2022-11-28T18:22:01.759Z,8.61
2022-11-28T18:24:28.450Z,8.45
2022-11-28T18:26:55.042Z,8.70
2022-11-28T18:29:21.662Z,8.59
2022-11-28T18:31:48.383Z,8.49
2022-11-28T18:34:15.031Z,8.92
2022-11-28T18:36:47.478Z,9.13
2022-11-28T18:39:14.684Z,8.98
2022-11-28T18:41:41.841Z,8.62
2022-11-28T18:44:10.767Z,8.77
2022-11-28T18:46:39.190Z,8.65
2022-11-28T18:49:05.856Z,8.63
2022-11-28T18:51:34.736Z,8.65
2022-11-28T18:54:05.669Z,8.62
2022-11-28T18:56:32.327Z,9.03
2022-11-28T18:58:59.022Z,9.12
2022-11-28T19:01:28.576Z,9.26
2022-11-28T19:04:00.775Z,8.94
2022-11-28T19:06:28.512Z,8.53
2022-11-28T19:08:59.187Z,8.96
2022-11-28T19:11:27.063Z,9.02
2022-11-28T19:13:53.743Z,9.25
2022-11-28T19:16:24.383Z,8.87
2022-11-28T19:18:51.551Z,8.82
2022-11-28T19:21:21.657Z,9.16
2022-11-28T19:23:49.198Z,9.42
2022-11-28T19:26:21.554Z,9.64
2022-11-28T19:28:48.698Z,9.56
2022-11-28T19:31:21.053Z,10.15
2022-11-28T19:34:06.550Z,10.26
2022-11-28T19:36:38.227Z,10.18
2022-11-28T19:39:05.431Z,9.81
2022-11-28T19:41:32.011Z,9.63
2022-11-28T19:43:58.875Z,9.60
2022-11-28T19:46:29.160Z,9.24
2022-11-28T19:48:58.754Z,9.00
2022-11-28T19:51:25.373Z,9.03
2022-11-28T19:53:52.044Z,9.41
2022-11-28T19:56:21.176Z,9.23
2022-11-28T19:58:48.751Z,9.07
2022-11-28T20:01:20.829Z,8.83
2022-11-28T20:03:49.458Z,8.81
2022-11-28T20:06:28.438Z,8.51
2022-11-28T20:08:58.381Z,8.59
2022-11-28T20:11:28.349Z,8.94
2022-11-28T20:14:01.040Z,8.32
2022-11-28T20:16:30.267Z,8.37
2022-11-28T20:18:57.324Z,8.58
2022-11-28T20:21:26.871Z,8.59
2022-11-28T20:23:56.255Z,9.06
2022-11-28T20:26:25.222Z,8.72
2022-11-28T20:28:53.423Z,8.51
2022-11-28T20:31:26.549Z,8.28
2022-11-28T20:33:54.697Z,8.85
2022-11-28T20:36:23.682Z,9.04
2022-11-28T20:38:54.634Z,8.79
2022-11-28T20:41:23.344Z,8.84
2022-11-28T20:43:50.614Z,8.95
2022-11-28T20:46:29.169Z,8.74
2022-11-28T20:48:59.037Z,8.33
2022-11-28T20:51:28.449Z,8.67
2022-11-28T20:53:57.221Z,8.99
2022-11-28T20:56:26.915Z,8.63
2022-11-28T20:58:53.528Z,8.78
2022-11-28T21:01:25.414Z,8.55
2022-11-28T21:03:53.066Z,9.10
2022-11-28T21:06:20.417Z,8.59
2022-11-28T21:08:47.669Z,8.78
2022-11-28T21:11:50.251Z,9.10
2022-11-28T21:14:07.527Z,9.03
2022-11-28T21:16:34.495Z,8.90
2022-11-28T21:19:07.602Z,8.97
2022-11-28T21:21:37.220Z,9.12
2022-11-28T21:24:07.136Z,9.17
2022-11-28T21:26:40.482Z,9.18
2022-11-28T21:29:12.038Z,9.49
2022-11-28T21:31:43.007Z,9.48
2022-11-28T21:34:12.813Z,9.23
2022-11-28T21:36:39.798Z,9.09
2022-11-28T21:39:13.478Z,9.20
2022-11-28T21:41:40.442Z,9.48
2022-11-28T21:44:07.019Z,9.76
2022-11-28T21:46:33.662Z,10.14
2022-11-28T21:49:00.371Z,10.21
2022-11-28T21:51:28.042Z,10.22
2022-11-28T21:53:54.814Z,10.31
2022-11-28T21:56:21.418Z,10.50
2022-11-28T21:58:48.252Z,10.30
2022-11-28T22:01:15.107Z,10.47
2022-11-28T22:03:42.167Z,10.25
2022-11-28T22:06:15.195Z,10.16
2022-11-28T22:08:41.833Z,10.20
2022-11-28T22:11:08.937Z,10.05
2022-11-28T22:13:36.019Z,10.19
2022-11-28T22:16:12.057Z,10.13
2022-11-28T22:18:38.877Z,9.80
2022-11-28T22:21:28.588Z,9.58
2022-11-28T22:23:54.741Z,8.61
2022-11-28T22:26:21.508Z,8.07
2022-11-28T22:28:53.597Z,7.81
2022-11-28T22:31:21.547Z,8.01
2022-11-28T22:33:50.192Z,8.14
2022-11-28T22:36:20.181Z,8.23
2022-11-28T22:38:48.395Z,8.55
2022-11-28T22:41:26.339Z,8.02
2022-11-28T22:43:57.306Z,8.11
2022-11-28T22:46:23.917Z,8.05
2022-11-28T22:48:50.634Z,8.10
2022-11-28T22:51:24.785Z,8.68
2022-11-28T22:53:56.296Z,9.16
2022-11-28T22:56:23.605Z,9.47
2022-11-28T22:58:50.578Z,9.73
2022-11-28T23:01:20.951Z,9.66
2022-11-28T23:03:48.596Z,8.90
2022-11-28T23:06:18.044Z,9.68
2022-11-28T23:08:45.352Z,9.93
2022-11-28T23:11:16.700Z,9.96
2022-11-28T23:13:44.617Z,9.86
2022-11-28T23:16:15.151Z,10.06
2022-11-28T23:18:43.668Z,10.04
2022-11-28T23:21:11.121Z,10.27
2022-11-28T23:23:38.423Z,10.25
2022-11-28T23:26:10.953Z,10.09
2022-11-28T23:28:38.819Z,9.57
2022-11-28T23:31:06.502Z,9.92
2022-11-28T23:33:33.312Z,10.09
2022-11-28T23:36:00.104Z,10.20
2022-11-28T23:38:26.805Z,10.14
2022-11-28T23:40:56.841Z,10.09
2022-11-28T23:43:23.585Z,9.86
2022-11-28T23:45:50.229Z,10.03
2022-11-28T23:48:16.852Z,10.08
2022-11-28T23:50:43.474Z,10.19
2022-11-28T23:53:10.135Z,10.30
2022-11-28T23:55:36.839Z,9.79
2022-11-28T23:58:03.478Z,9.88
